Main page
METAR-TAF:

METAR-TAF

Airports :

Carlisle Lake District Airport

Carlisle, England

latitude: 54-56-15N, longitude: 002-48-33W, elevation: 57 m

Current weather observation

The report was made 1 hour and 2 minutes ago, at 06:50 UTC
Wind 13 kt from the Southwest
Temperature 13°C
Humidity 77%
Pressure 995 hPa
Visibility 10 km or more
Scattered clouds at a height of 2800 ft

METAR: EGNC 180650Z 22013KT 9999 SCT028 13/09 Q0995

Time: 08:52 (07:52 UTC)

Forecast

The report was made 1 hour and 55 minutes ago, at 05:57 UTC
Forecast valid from 18 at 06 UTC to 18 at 15 UTC
Wind 12 kt from the Southwest
Visibility 10 km or more
Scattered clouds at a height of 2000 ft
Temporary
from 18 at 06 UTC to 18 at 15 UTC
Wind 15 kt from the Southwest with gusts up to 28 kt
Probability 40% :
Temporary
from 18 at 06 UTC to 18 at 15 UTC
Visibility: 6000 m
rain showers

TAF: EGNC 180557Z 1806/1815 22012KT 9999 SCT020 TEMPO 1806/1815 23015G28KT PROB40 TEMPO 1806/1815 6000 SHRA

Weather observations and forecasts of more than 4000 airports (METAR and TAF reports).

The available stations are represented by yellow and red dots on the map.

Hover mouse over dot to see the name of the station.

Then click to see weather observations and forecasts.

To change the map : click on the green buttons with a black cross to zoom in, on the green button with a dash to zoom out, or on the green arrows for adjacent maps.


METAR-TAF: